sensor_id;sensor_type;location;lat;lon;timestamp;temperature;humidity
26182;DHT22;13927;51.534;11.866;2023-02-08T00:00:48;-3.30;99.90
26182;DHT22;13927;51.534;11.866;2023-02-08T00:03:14;-3.20;99.90
26182;DHT22;13927;51.534;11.866;2023-02-08T00:05:40;-3.20;99.90
26182;DHT22;13927;51.534;11.866;2023-02-08T00:08:06;-3.10;99.90
26182;DHT22;13927;51.534;11.866;2023-02-08T00:10:35;-3.10;99.90
26182;DHT22;13927;51.534;11.866;2023-02-08T00:13:01;-3.10;99.90
26182;DHT22;13927;51.534;11.866;2023-02-08T00:15:26;-3.00;99.90
26182;DHT22;13927;51.534;11.866;2023-02-08T00:17:52;-3.00;99.90
26182;DHT22;13927;51.534;11.866;2023-02-08T00:20:18;-3.00;99.90
26182;DHT22;13927;51.534;11.866;2023-02-08T00:22:44;-3.00;99.90
26182;DHT22;13927;51.534;11.866;2023-02-08T00:25:10;-3.10;99.90
26182;DHT22;13927;51.534;11.866;2023-02-08T00:27:36;-3.10;99.90
26182;DHT22;13927;51.534;11.866;2023-02-08T00:30:03;-3.20;99.90
26182;DHT22;13927;51.534;11.866;2023-02-08T00:32:32;-3.20;99.90
26182;DHT22;13927;51.534;11.866;2023-02-08T00:34:58;-3.20;99.90
26182;DHT22;13927;51.534;11.866;2023-02-08T00:37:23;-3.20;99.90
26182;DHT22;13927;51.534;11.866;2023-02-08T00:39:49;-3.20;99.90
26182;DHT22;13927;51.534;11.866;2023-02-08T00:42:15;-3.20;99.90
26182;DHT22;13927;51.534;11.866;2023-02-08T00:44:40;-3.20;99.90
26182;DHT22;13927;51.534;11.866;2023-02-08T00:47:06;-3.10;99.90
26182;DHT22;13927;51.534;11.866;2023-02-08T00:49:32;-3.10;99.90
26182;DHT22;13927;51.534;11.866;2023-02-08T00:51:57;-3.20;99.90
26182;DHT22;13927;51.534;11.866;2023-02-08T00:54:24;-3.20;99.90
26182;DHT22;13927;51.534;11.866;2023-02-08T00:56:50;-3.30;99.90
26182;DHT22;13927;51.534;11.866;2023-02-08T00:59:16;-3.30;99.90
26182;DHT22;13927;51.534;11.866;2023-02-08T01:01:41;-3.20;99.90
26182;DHT22;13927;51.534;11.866;2023-02-08T01:04:07;-3.20;99.90
26182;DHT22;13927;51.534;11.866;2023-02-08T01:06:34;-3.20;99.90
26182;DHT22;13927;51.534;11.866;2023-02-08T01:09:00;-3.10;99.90
26182;DHT22;13927;51.534;11.866;2023-02-08T01:11:26;-3.10;99.90
26182;DHT22;13927;51.534;11.866;2023-02-08T01:13:53;-3.00;99.90
26182;DHT22;13927;51.534;11.866;2023-02-08T01:16:24;-3.10;99.90
26182;DHT22;13927;51.534;11.866;2023-02-08T01:18:54;-3.10;99.90
26182;DHT22;13927;51.534;11.866;2023-02-08T01:21:31;-3.10;99.90
26182;DHT22;13927;51.534;11.866;2023-02-08T01:23:58;-3.00;99.90
26182;DHT22;13927;51.534;11.866;2023-02-08T01:26:25;-3.00;99.90
26182;DHT22;13927;51.534;11.866;2023-02-08T01:28:52;-3.00;99.90
26182;DHT22;13927;51.534;11.866;2023-02-08T01:31:22;-3.10;99.90
26182;DHT22;13927;51.534;11.866;2023-02-08T01:33:49;-3.10;99.90
26182;DHT22;13927;51.534;11.866;2023-02-08T01:36:15;-3.10;99.90
26182;DHT22;13927;51.534;11.866;2023-02-08T01:38:43;-3.00;99.90
26182;DHT22;13927;51.534;11.866;2023-02-08T01:41:21;-3.00;99.90
26182;DHT22;13927;51.534;11.866;2023-02-08T01:46:39;-3.10;99.90
26182;DHT22;13927;51.534;11.866;2023-02-08T01:49:17;-3.00;99.90
26182;DHT22;13927;51.534;11.866;2023-02-08T01:51:57;-3.00;99.90
26182;DHT22;13927;51.534;11.866;2023-02-08T01:54:27;-3.00;99.90
26182;DHT22;13927;51.534;11.866;2023-02-08T01:56:57;-3.00;99.90
26182;DHT22;13927;51.534;11.866;2023-02-08T01:59:26;-3.00;99.90
26182;DHT22;13927;51.534;11.866;2023-02-08T02:01:57;-3.00;99.90
26182;DHT22;13927;51.534;11.866;2023-02-08T02:04:25;-3.00;99.90
26182;DHT22;13927;51.534;11.866;2023-02-08T02:06:56;-3.10;99.90
26182;DHT22;13927;51.534;11.866;2023-02-08T02:12:13;-3.10;99.90
26182;DHT22;13927;51.534;11.866;2023-02-08T02:14:39;-3.10;99.90
26182;DHT22;13927;51.534;11.866;2023-02-08T02:17:06;-3.20;99.90
26182;DHT22;13927;51.534;11.866;2023-02-08T02:25:58;-3.20;99.90
26182;DHT22;13927;51.534;11.866;2023-02-08T02:31:24;-3.20;99.90
26182;DHT22;13927;51.534;11.866;2023-02-08T02:43:21;-3.40;99.90
26182;DHT22;13927;51.534;11.866;2023-02-08T02:46:38;-3.40;99.90
26182;DHT22;13927;51.534;11.866;2023-02-08T02:49:26;-3.30;99.90
26182;DHT22;13927;51.534;11.866;2023-02-08T02:52:18;-3.40;99.90
26182;DHT22;13927;51.534;11.866;2023-02-08T02:54:53;-3.30;99.90
26182;DHT22;13927;51.534;11.866;2023-02-08T02:57:31;-3.40;99.90
26182;DHT22;13927;51.534;11.866;2023-02-08T02:59:59;-3.30;99.90
26182;DHT22;13927;51.534;11.866;2023-02-08T03:02:31;-3.30;99.90
26182;DHT22;13927;51.534;11.866;2023-02-08T03:04:57;-3.30;99.90
26182;DHT22;13927;51.534;11.866;2023-02-08T03:13:13;-3.30;99.90
26182;DHT22;13927;51.534;11.866;2023-02-08T03:22:13;-3.30;99.90
26182;DHT22;13927;51.534;11.866;2023-02-08T03:25:05;-3.30;99.90
26182;DHT22;13927;51.534;11.866;2023-02-08T03:34:13;-3.20;99.90
26182;DHT22;13927;51.534;11.866;2023-02-08T03:39:30;-3.30;99.90
26182;DHT22;13927;51.534;11.866;2023-02-08T03:42:05;-3.20;99.90
26182;DHT22;13927;51.534;11.866;2023-02-08T03:44:41;-3.20;99.90
26182;DHT22;13927;51.534;11.866;2023-02-08T03:47:18;-3.20;99.90
26182;DHT22;13927;51.534;11.866;2023-02-08T03:49:54;-3.20;99.90
26182;DHT22;13927;51.534;11.866;2023-02-08T03:52:23;-3.40;99.90
26182;DHT22;13927;51.534;11.866;2023-02-08T03:54:56;-3.40;99.90
26182;DHT22;13927;51.534;11.866;2023-02-08T03:57:31;-3.40;99.90
26182;DHT22;13927;51.534;11.866;2023-02-08T04:00:03;-3.50;99.90
26182;DHT22;13927;51.534;11.866;2023-02-08T04:02:34;-3.60;99.90
26182;DHT22;13927;51.534;11.866;2023-02-08T04:05:04;-3.70;99.90
26182;DHT22;13927;51.534;11.866;2023-02-08T04:07:30;-3.70;99.90
26182;DHT22;13927;51.534;11.866;2023-02-08T04:09:56;-3.70;99.90
26182;DHT22;13927;51.534;11.866;2023-02-08T04:12:22;-3.70;99.90
26182;DHT22;13927;51.534;11.866;2023-02-08T04:14:47;-3.60;99.90
26182;DHT22;13927;51.534;11.866;2023-02-08T04:17:13;-3.60;99.90
26182;DHT22;13927;51.534;11.866;2023-02-08T04:19:39;-3.50;99.90
26182;DHT22;13927;51.534;11.866;2023-02-08T04:22:04;-3.50;99.90
26182;DHT22;13927;51.534;11.866;2023-02-08T04:24:30;-3.40;99.90
26182;DHT22;13927;51.534;11.866;2023-02-08T04:26:56;-3.40;99.90
26182;DHT22;13927;51.534;11.866;2023-02-08T04:29:22;-3.40;99.90
26182;DHT22;13927;51.534;11.866;2023-02-08T04:31:47;-3.30;99.90
26182;DHT22;13927;51.534;11.866;2023-02-08T04:34:13;-3.30;99.90
26182;DHT22;13927;51.534;11.866;2023-02-08T04:36:39;-3.30;99.90
26182;DHT22;13927;51.534;11.866;2023-02-08T04:39:04;-3.40;99.90
26182;DHT22;13927;51.534;11.866;2023-02-08T04:41:30;-3.40;99.90
26182;DHT22;13927;51.534;11.866;2023-02-08T04:43:56;-3.50;99.90
26182;DHT22;13927;51.534;11.866;2023-02-08T04:46:21;-3.60;99.90
26182;DHT22;13927;51.534;11.866;2023-02-08T04:48:47;-3.60;99.90
26182;DHT22;13927;51.534;11.866;2023-02-08T04:51:13;-3.60;99.90
26182;DHT22;13927;51.534;11.866;2023-02-08T04:53:39;-3.60;99.90
26182;DHT22;13927;51.534;11.866;2023-02-08T04:56:04;-3.60;99.90
26182;DHT22;13927;51.534;11.866;2023-02-08T04:58:30;-3.60;99.90
26182;DHT22;13927;51.534;11.866;2023-02-08T05:00:56;-3.50;99.90
26182;DHT22;13927;51.534;11.866;2023-02-08T05:03:21;-3.50;99.90
26182;DHT22;13927;51.534;11.866;2023-02-08T05:05:56;-3.50;99.90
26182;DHT22;13927;51.534;11.866;2023-02-08T05:08:22;-3.50;99.90
26182;DHT22;13927;51.534;11.866;2023-02-08T05:10:48;-3.50;99.90
26182;DHT22;13927;51.534;11.866;2023-02-08T05:13:14;-3.40;99.90
26182;DHT22;13927;51.534;11.866;2023-02-08T05:15:39;-3.40;99.90
26182;DHT22;13927;51.534;11.866;2023-02-08T05:18:05;-3.40;99.90
26182;DHT22;13927;51.534;11.866;2023-02-08T05:20:31;-3.40;99.90
26182;DHT22;13927;51.534;11.866;2023-02-08T05:22:58;-3.40;99.90
26182;DHT22;13927;51.534;11.866;2023-02-08T05:25:24;-3.40;99.90
26182;DHT22;13927;51.534;11.866;2023-02-08T05:27:50;-3.40;99.90
26182;DHT22;13927;51.534;11.866;2023-02-08T05:30:15;-3.40;99.90
26182;DHT22;13927;51.534;11.866;2023-02-08T05:32:41;-3.30;99.90
26182;DHT22;13927;51.534;11.866;2023-02-08T05:35:07;-3.30;99.90
26182;DHT22;13927;51.534;11.866;2023-02-08T05:37:33;-3.30;99.90
26182;DHT22;13927;51.534;11.866;2023-02-08T05:39:59;-3.40;99.90
26182;DHT22;13927;51.534;11.866;2023-02-08T05:42:25;-3.50;99.90
26182;DHT22;13927;51.534;11.866;2023-02-08T05:44:51;-3.60;99.90
26182;DHT22;13927;51.534;11.866;2023-02-08T05:47:17;-3.60;99.90
26182;DHT22;13927;51.534;11.866;2023-02-08T05:49:43;-3.70;99.90
26182;DHT22;13927;51.534;11.866;2023-02-08T05:52:08;-3.80;99.90
26182;DHT22;13927;51.534;11.866;2023-02-08T05:54:34;-3.80;99.90
26182;DHT22;13927;51.534;11.866;2023-02-08T05:57:00;-3.80;99.90
26182;DHT22;13927;51.534;11.866;2023-02-08T05:59:26;-3.90;99.90
26182;DHT22;13927;51.534;11.866;2023-02-08T06:01:52;-3.90;99.90
26182;DHT22;13927;51.534;11.866;2023-02-08T06:04:17;-3.90;99.90
26182;DHT22;13927;51.534;11.866;2023-02-08T06:06:43;-3.90;99.90
26182;DHT22;13927;51.534;11.866;2023-02-08T06:09:09;-3.80;99.90
26182;DHT22;13927;51.534;11.866;2023-02-08T06:11:34;-3.80;99.90
26182;DHT22;13927;51.534;11.866;2023-02-08T06:14:01;-3.70;99.90
26182;DHT22;13927;51.534;11.866;2023-02-08T06:16:27;-3.60;99.90
26182;DHT22;13927;51.534;11.866;2023-02-08T06:18:54;-3.60;99.90
26182;DHT22;13927;51.534;11.866;2023-02-08T06:21:19;-3.50;99.90
26182;DHT22;13927;51.534;11.866;2023-02-08T06:23:45;-3.40;99.90
26182;DHT22;13927;51.534;11.866;2023-02-08T06:26:11;-3.30;99.90
26182;DHT22;13927;51.534;11.866;2023-02-08T06:28:37;-3.30;99.90
26182;DHT22;13927;51.534;11.866;2023-02-08T06:31:02;-3.30;99.90
26182;DHT22;13927;51.534;11.866;2023-02-08T06:33:28;-3.30;99.90
26182;DHT22;13927;51.534;11.866;2023-02-08T06:35:54;-3.20;99.90
26182;DHT22;13927;51.534;11.866;2023-02-08T06:38:20;-3.20;99.90
26182;DHT22;13927;51.534;11.866;2023-02-08T06:40:47;-3.20;99.90
26182;DHT22;13927;51.534;11.866;2023-02-08T06:43:13;-3.30;99.90
26182;DHT22;13927;51.534;11.866;2023-02-08T06:45:40;-3.40;99.90
26182;DHT22;13927;51.534;11.866;2023-02-08T06:48:07;-3.40;99.90
26182;DHT22;13927;51.534;11.866;2023-02-08T06:50:32;-3.40;99.90
26182;DHT22;13927;51.534;11.866;2023-02-08T06:52:58;-3.50;99.90
26182;DHT22;13927;51.534;11.866;2023-02-08T06:55:24;-3.60;99.90
26182;DHT22;13927;51.534;11.866;2023-02-08T06:57:52;-3.60;99.90
26182;DHT22;13927;51.534;11.866;2023-02-08T07:00:18;-3.60;99.90
26182;DHT22;13927;51.534;11.866;2023-02-08T07:02:44;-3.60;99.90
26182;DHT22;13927;51.534;11.866;2023-02-08T07:05:12;-3.60;99.90
26182;DHT22;13927;51.534;11.866;2023-02-08T07:07:38;-3.60;99.90
26182;DHT22;13927;51.534;11.866;2023-02-08T07:10:04;-3.50;99.90
26182;DHT22;13927;51.534;11.866;2023-02-08T07:12:35;-3.50;99.90
26182;DHT22;13927;51.534;11.866;2023-02-08T07:15:01;-3.50;99.90
26182;DHT22;13927;51.534;11.866;2023-02-08T07:17:27;-3.50;99.90
26182;DHT22;13927;51.534;11.866;2023-02-08T07:19:53;-3.50;99.90
26182;DHT22;13927;51.534;11.866;2023-02-08T07:22:19;-3.50;99.90
26182;DHT22;13927;51.534;11.866;2023-02-08T07:24:45;-3.50;99.90
26182;DHT22;13927;51.534;11.866;2023-02-08T07:27:11;-3.40;99.90
26182;DHT22;13927;51.534;11.866;2023-02-08T07:29:38;-3.30;99.90
26182;DHT22;13927;51.534;11.866;2023-02-08T07:32:05;-3.30;99.90
26182;DHT22;13927;51.534;11.866;2023-02-08T07:34:35;-3.20;99.90
26182;DHT22;13927;51.534;11.866;2023-02-08T07:37:02;-3.20;99.90
26182;DHT22;13927;51.534;11.866;2023-02-08T07:39:28;-3.10;99.90
26182;DHT22;13927;51.534;11.866;2023-02-08T07:41:56;-3.10;99.90
26182;DHT22;13927;51.534;11.866;2023-02-08T07:44:22;-3.00;99.90
26182;DHT22;13927;51.534;11.866;2023-02-08T07:46:48;-3.00;99.90
26182;DHT22;13927;51.534;11.866;2023-02-08T07:49:13;-3.10;99.90
26182;DHT22;13927;51.534;11.866;2023-02-08T07:51:39;-3.10;99.90
26182;DHT22;13927;51.534;11.866;2023-02-08T07:54:05;-3.20;99.90
26182;DHT22;13927;51.534;11.866;2023-02-08T07:56:31;-3.10;99.90
26182;DHT22;13927;51.534;11.866;2023-02-08T07:58:56;-3.10;99.90
26182;DHT22;13927;51.534;11.866;2023-02-08T08:01:22;-3.10;99.90
26182;DHT22;13927;51.534;11.866;2023-02-08T08:03:49;-3.00;99.90
26182;DHT22;13927;51.534;11.866;2023-02-08T08:06:16;-3.00;99.90
26182;DHT22;13927;51.534;11.866;2023-02-08T08:08:42;-2.90;99.90
26182;DHT22;13927;51.534;11.866;2023-02-08T08:11:12;-2.80;99.90
26182;DHT22;13927;51.534;11.866;2023-02-08T08:13:41;-2.80;99.90
26182;DHT22;13927;51.534;11.866;2023-02-08T08:16:06;-2.70;99.90
26182;DHT22;13927;51.534;11.866;2023-02-08T08:18:32;-2.70;99.90
26182;DHT22;13927;51.534;11.866;2023-02-08T08:20:58;-2.60;99.90
26182;DHT22;13927;51.534;11.866;2023-02-08T08:23:23;-2.50;99.90
26182;DHT22;13927;51.534;11.866;2023-02-08T08:25:49;-2.50;99.90
26182;DHT22;13927;51.534;11.866;2023-02-08T08:28:15;-2.40;99.90
26182;DHT22;13927;51.534;11.866;2023-02-08T08:30:43;-2.30;99.90
26182;DHT22;13927;51.534;11.866;2023-02-08T08:33:09;-2.20;99.90
26182;DHT22;13927;51.534;11.866;2023-02-08T08:35:35;-2.30;99.90
26182;DHT22;13927;51.534;11.866;2023-02-08T08:38:01;-2.40;99.90
26182;DHT22;13927;51.534;11.866;2023-02-08T08:40:26;-2.50;99.90
26182;DHT22;13927;51.534;11.866;2023-02-08T08:42:52;-2.50;99.90
26182;DHT22;13927;51.534;11.866;2023-02-08T08:45:18;-2.50;99.90
26182;DHT22;13927;51.534;11.866;2023-02-08T08:47:44;-2.50;99.90
26182;DHT22;13927;51.534;11.866;2023-02-08T08:50:09;-2.50;99.90
26182;DHT22;13927;51.534;11.866;2023-02-08T08:52:35;-2.50;99.90
26182;DHT22;13927;51.534;11.866;2023-02-08T08:55:01;-2.40;99.90
26182;DHT22;13927;51.534;11.866;2023-02-08T08:57:26;-2.40;99.90
26182;DHT22;13927;51.534;11.866;2023-02-08T08:59:52;-2.30;99.90
26182;DHT22;13927;51.534;11.866;2023-02-08T09:02:18;-2.20;99.90
26182;DHT22;13927;51.534;11.866;2023-02-08T09:04:43;-2.00;99.90
26182;DHT22;13927;51.534;11.866;2023-02-08T09:07:09;-1.90;99.90
26182;DHT22;13927;51.534;11.866;2023-02-08T09:09:35;-1.80;99.90
26182;DHT22;13927;51.534;11.866;2023-02-08T09:12:02;-1.70;99.90
26182;DHT22;13927;51.534;11.866;2023-02-08T09:14:28;-1.70;99.90
26182;DHT22;13927;51.534;11.866;2023-02-08T09:16:54;-1.60;99.90
26182;DHT22;13927;51.534;11.866;2023-02-08T09:19:20;-1.50;99.90
26182;DHT22;13927;51.534;11.866;2023-02-08T09:21:46;-1.50;99.90
26182;DHT22;13927;51.534;11.866;2023-02-08T09:24:11;-1.30;99.90
26182;DHT22;13927;51.534;11.866;2023-02-08T09:26:38;-1.30;99.90
26182;DHT22;13927;51.534;11.866;2023-02-08T09:29:05;-1.30;99.90
26182;DHT22;13927;51.534;11.866;2023-02-08T09:31:32;-1.20;99.90
26182;DHT22;13927;51.534;11.866;2023-02-08T09:34:04;-1.10;99.90
26182;DHT22;13927;51.534;11.866;2023-02-08T09:36:33;-1.00;99.90
26182;DHT22;13927;51.534;11.866;2023-02-08T09:39:13;-1.00;99.90
26182;DHT22;13927;51.534;11.866;2023-02-08T09:42:05;-0.80;99.90
26182;DHT22;13927;51.534;11.866;2023-02-08T09:50:12;-0.10;99.90
26182;DHT22;13927;51.534;11.866;2023-02-08T09:55:33;0.90;99.90
26182;DHT22;13927;51.534;11.866;2023-02-08T09:58:05;1.20;99.90
26182;DHT22;13927;51.534;11.866;2023-02-08T10:00:42;1.50;99.90
26182;DHT22;13927;51.534;11.866;2023-02-08T10:03:39;1.60;99.90
26182;DHT22;13927;51.534;11.866;2023-02-08T10:06:12;2.00;99.90
26182;DHT22;13927;51.534;11.866;2023-02-08T10:08:40;2.40;99.90
26182;DHT22;13927;51.534;11.866;2023-02-08T10:11:40;2.70;99.90
26182;DHT22;13927;51.534;11.866;2023-02-08T10:22:58;3.30;99.90
26182;DHT22;13927;51.534;11.866;2023-02-08T10:32:29;3.60;99.90
26182;DHT22;13927;51.534;11.866;2023-02-08T10:35:24;3.50;99.90
26182;DHT22;13927;51.534;11.866;2023-02-08T10:37:52;3.60;99.90
26182;DHT22;13927;51.534;11.866;2023-02-08T10:40:33;3.50;99.90
26182;DHT22;13927;51.534;11.866;2023-02-08T10:43:22;2.90;99.90
26182;DHT22;13927;51.534;11.866;2023-02-08T10:46:13;2.10;99.90
26182;DHT22;13927;51.534;11.866;2023-02-08T10:51:18;1.40;99.90
26182;DHT22;13927;51.534;11.866;2023-02-08T10:53:44;1.10;99.90
26182;DHT22;13927;51.534;11.866;2023-02-08T10:56:50;1.10;99.90
26182;DHT22;13927;51.534;11.866;2023-02-08T10:59:21;1.40;99.90
26182;DHT22;13927;51.534;11.866;2023-02-08T11:02:01;1.70;99.90
26182;DHT22;13927;51.534;11.866;2023-02-08T11:04:27;1.70;99.90
26182;DHT22;13927;51.534;11.866;2023-02-08T11:06:53;1.60;99.90
26182;DHT22;13927;51.534;11.866;2023-02-08T11:09:27;1.50;99.90
26182;DHT22;13927;51.534;11.866;2023-02-08T11:11:55;1.50;99.90
26182;DHT22;13927;51.534;11.866;2023-02-08T11:14:26;1.70;99.90
26182;DHT22;13927;51.534;11.866;2023-02-08T11:16:56;1.90;99.90
26182;DHT22;13927;51.534;11.866;2023-02-08T11:19:33;1.70;99.90
26182;DHT22;13927;51.534;11.866;2023-02-08T11:22:02;1.20;99.90
26182;DHT22;13927;51.534;11.866;2023-02-08T11:24:34;1.10;99.90
26182;DHT22;13927;51.534;11.866;2023-02-08T11:27:37;1.10;99.90
26182;DHT22;13927;51.534;11.866;2023-02-08T11:30:21;1.20;99.90
26182;DHT22;13927;51.534;11.866;2023-02-08T11:33:07;1.50;99.90
26182;DHT22;13927;51.534;11.866;2023-02-08T11:35:39;1.60;99.90
26182;DHT22;13927;51.534;11.866;2023-02-08T11:38:05;1.70;99.90
26182;DHT22;13927;51.534;11.866;2023-02-08T11:40:43;1.80;99.90
26182;DHT22;13927;51.534;11.866;2023-02-08T11:43:24;2.10;99.90
26182;DHT22;13927;51.534;11.866;2023-02-08T11:45:53;2.40;99.90
26182;DHT22;13927;51.534;11.866;2023-02-08T11:48:24;2.50;99.90
26182;DHT22;13927;51.534;11.866;2023-02-08T11:51:03;2.60;99.90
26182;DHT22;13927;51.534;11.866;2023-02-08T11:53:32;2.70;99.90
26182;DHT22;13927;51.534;11.866;2023-02-08T12:01:36;3.40;99.90
26182;DHT22;13927;51.534;11.866;2023-02-08T12:04:09;3.70;99.90
26182;DHT22;13927;51.534;11.866;2023-02-08T12:09:55;4.50;99.90
26182;DHT22;13927;51.534;11.866;2023-02-08T12:22:11;5.00;99.90
26182;DHT22;13927;51.534;11.866;2023-02-08T12:28:14;5.20;99.90
26182;DHT22;13927;51.534;11.866;2023-02-08T12:57:16;6.80;99.90
26182;DHT22;13927;51.534;11.866;2023-02-08T12:59:50;6.90;99.90
26182;DHT22;13927;51.534;11.866;2023-02-08T13:02:29;7.10;99.90
26182;DHT22;13927;51.534;11.866;2023-02-08T13:05:16;7.30;99.90
26182;DHT22;13927;51.534;11.866;2023-02-08T13:07:45;7.50;99.90
26182;DHT22;13927;51.534;11.866;2023-02-08T13:10:35;7.60;99.90
26182;DHT22;13927;51.534;11.866;2023-02-08T13:15:54;7.60;99.90
26182;DHT22;13927;51.534;11.866;2023-02-08T13:18:33;7.70;99.90
26182;DHT22;13927;51.534;11.866;2023-02-08T13:21:28;7.60;99.90
26182;DHT22;13927;51.534;11.866;2023-02-08T13:23:57;7.70;99.90
26182;DHT22;13927;51.534;11.866;2023-02-08T13:26:32;7.70;99.90
26182;DHT22;13927;51.534;11.866;2023-02-08T13:29:00;7.80;99.90
26182;DHT22;13927;51.534;11.866;2023-02-08T13:31:43;8.00;99.90
26182;DHT22;13927;51.534;11.866;2023-02-08T13:36:55;8.30;99.90
26182;DHT22;13927;51.534;11.866;2023-02-08T13:39:40;8.40;99.90
26182;DHT22;13927;51.534;11.866;2023-02-08T13:42:24;8.40;99.90
26182;DHT22;13927;51.534;11.866;2023-02-08T13:44:55;8.10;99.90
26182;DHT22;13927;51.534;11.866;2023-02-08T13:47:29;8.10;99.90
26182;DHT22;13927;51.534;11.866;2023-02-08T13:49:58;8.20;99.90
26182;DHT22;13927;51.534;11.866;2023-02-08T14:03:25;8.40;99.90
26182;DHT22;13927;51.534;11.866;2023-02-08T14:11:20;8.80;99.90
26182;DHT22;13927;51.534;11.866;2023-02-08T14:16:37;9.00;99.90
26182;DHT22;13927;51.534;11.866;2023-02-08T14:21:45;9.20;99.90
26182;DHT22;13927;51.534;11.866;2023-02-08T14:24:33;9.40;99.90
26182;DHT22;13927;51.534;11.866;2023-02-08T14:30:07;9.60;99.90
26182;DHT22;13927;51.534;11.866;2023-02-08T14:32:49;9.60;99.90
26182;DHT22;13927;51.534;11.866;2023-02-08T14:35:21;9.50;99.90
26182;DHT22;13927;51.534;11.866;2023-02-08T14:37:51;9.20;99.90
26182;DHT22;13927;51.534;11.866;2023-02-08T14:45:48;9.30;99.90
26182;DHT22;13927;51.534;11.866;2023-02-08T14:48:27;9.40;99.90
26182;DHT22;13927;51.534;11.866;2023-02-08T14:53:43;9.10;99.90
26182;DHT22;13927;51.534;11.866;2023-02-08T14:56:29;9.30;99.90
26182;DHT22;13927;51.534;11.866;2023-02-08T14:59:10;9.30;99.90
26182;DHT22;13927;51.534;11.866;2023-02-08T15:01:51;9.30;99.90
26182;DHT22;13927;51.534;11.866;2023-02-08T15:04:22;9.20;99.90
26182;DHT22;13927;51.534;11.866;2023-02-08T15:07:15;9.00;99.90
26182;DHT22;13927;51.534;11.866;2023-02-08T15:09:47;9.00;99.90
26182;DHT22;13927;51.534;11.866;2023-02-08T15:14:53;8.70;99.90
26182;DHT22;13927;51.534;11.866;2023-02-08T15:20:03;8.60;99.90
26182;DHT22;13927;51.534;11.866;2023-02-08T15:22:34;8.50;99.90
26182;DHT22;13927;51.534;11.866;2023-02-08T15:27:52;8.30;99.90
26182;DHT22;13927;51.534;11.866;2023-02-08T15:30:34;8.20;99.90
26182;DHT22;13927;51.534;11.866;2023-02-08T15:33:13;8.00;99.90
26182;DHT22;13927;51.534;11.866;2023-02-08T15:35:42;7.90;99.90
26182;DHT22;13927;51.534;11.866;2023-02-08T15:38:15;7.80;99.90
26182;DHT22;13927;51.534;11.866;2023-02-08T15:40:59;7.70;99.90
26182;DHT22;13927;51.534;11.866;2023-02-08T15:43:30;7.70;99.90
26182;DHT22;13927;51.534;11.866;2023-02-08T15:45:59;7.60;99.90
26182;DHT22;13927;51.534;11.866;2023-02-08T15:48:27;7.60;99.90
26182;DHT22;13927;51.534;11.866;2023-02-08T15:51:01;7.50;99.90
26182;DHT22;13927;51.534;11.866;2023-02-08T15:53:29;7.30;99.90
26182;DHT22;13927;51.534;11.866;2023-02-08T15:55:59;7.10;99.90
26182;DHT22;13927;51.534;11.866;2023-02-08T15:58:33;6.90;99.90
26182;DHT22;13927;51.534;11.866;2023-02-08T16:01:02;6.50;99.90
26182;DHT22;13927;51.534;11.866;2023-02-08T16:03:30;6.20;99.90
26182;DHT22;13927;51.534;11.866;2023-02-08T16:05:58;5.80;99.90
26182;DHT22;13927;51.534;11.866;2023-02-08T16:08:30;5.40;99.90
26182;DHT22;13927;51.534;11.866;2023-02-08T16:11:21;5.10;99.90
26182;DHT22;13927;51.534;11.866;2023-02-08T16:13:51;4.60;99.90
26182;DHT22;13927;51.534;11.866;2023-02-08T16:16:23;4.30;99.90
26182;DHT22;13927;51.534;11.866;2023-02-08T16:19:26;4.00;99.90
26182;DHT22;13927;51.534;11.866;2023-02-08T16:22:28;3.70;99.90
26182;DHT22;13927;51.534;11.866;2023-02-08T16:25:48;3.30;99.90
26182;DHT22;13927;51.534;11.866;2023-02-08T16:28:34;3.00;99.90
26182;DHT22;13927;51.534;11.866;2023-02-08T16:31:02;2.70;99.90
26182;DHT22;13927;51.534;11.866;2023-02-08T16:33:29;2.60;99.90
26182;DHT22;13927;51.534;11.866;2023-02-08T16:35:56;2.40;99.90
26182;DHT22;13927;51.534;11.866;2023-02-08T16:38:27;2.30;99.90
26182;DHT22;13927;51.534;11.866;2023-02-08T16:40:59;2.20;99.90
26182;DHT22;13927;51.534;11.866;2023-02-08T16:43:37;2.00;99.90
26182;DHT22;13927;51.534;11.866;2023-02-08T16:46:19;1.90;99.90
26182;DHT22;13927;51.534;11.866;2023-02-08T16:48:55;1.80;99.90
26182;DHT22;13927;51.534;11.866;2023-02-08T16:51:28;1.60;99.90
26182;DHT22;13927;51.534;11.866;2023-02-08T16:54:02;1.50;99.90
26182;DHT22;13927;51.534;11.866;2023-02-08T16:56:36;1.40;99.90
26182;DHT22;13927;51.534;11.866;2023-02-08T16:59:03;1.30;99.90
26182;DHT22;13927;51.534;11.866;2023-02-08T17:01:29;1.20;99.90
26182;DHT22;13927;51.534;11.866;2023-02-08T17:03:55;1.10;99.90
26182;DHT22;13927;51.534;11.866;2023-02-08T17:09:00;0.90;99.90
26182;DHT22;13927;51.534;11.866;2023-02-08T17:11:28;0.80;99.90
26182;DHT22;13927;51.534;11.866;2023-02-08T17:13:54;0.70;99.90
26182;DHT22;13927;51.534;11.866;2023-02-08T17:16:23;0.60;99.90
26182;DHT22;13927;51.534;11.866;2023-02-08T17:18:51;0.60;99.90
26182;DHT22;13927;51.534;11.866;2023-02-08T17:21:17;0.50;99.90
26182;DHT22;13927;51.534;11.866;2023-02-08T17:23:44;0.40;99.90
26182;DHT22;13927;51.534;11.866;2023-02-08T17:28:52;0.30;99.90
26182;DHT22;13927;51.534;11.866;2023-02-08T17:31:21;0.30;99.90
26182;DHT22;13927;51.534;11.866;2023-02-08T17:33:48;0.20;99.90
26182;DHT22;13927;51.534;11.866;2023-02-08T17:36:15;0.20;99.90
26182;DHT22;13927;51.534;11.866;2023-02-08T17:38:43;0.10;99.90
26182;DHT22;13927;51.534;11.866;2023-02-08T17:41:16;0.10;99.90
26182;DHT22;13927;51.534;11.866;2023-02-08T17:43:43;0.10;99.90
26182;DHT22;13927;51.534;11.866;2023-02-08T17:46:11;0.00;99.90
26182;DHT22;13927;51.534;11.866;2023-02-08T17:48:40;0.00;99.90
26182;DHT22;13927;51.534;11.866;2023-02-08T17:51:08;0.00;99.90
26182;DHT22;13927;51.534;11.866;2023-02-08T17:53:40;-0.10;99.90
26182;DHT22;13927;51.534;11.866;2023-02-08T17:56:19;-0.20;99.90
26182;DHT22;13927;51.534;11.866;2023-02-08T17:58:49;-0.20;99.90
26182;DHT22;13927;51.534;11.866;2023-02-08T18:01:18;-0.30;99.90
26182;DHT22;13927;51.534;11.866;2023-02-08T18:03:47;-0.40;99.90
26182;DHT22;13927;51.534;11.866;2023-02-08T18:06:14;-0.40;99.90
26182;DHT22;13927;51.534;11.866;2023-02-08T18:08:41;-0.50;99.90
26182;DHT22;13927;51.534;11.866;2023-02-08T18:11:13;-0.50;99.90
26182;DHT22;13927;51.534;11.866;2023-02-08T18:13:42;-0.60;99.90
26182;DHT22;13927;51.534;11.866;2023-02-08T18:16:12;-0.60;99.90
26182;DHT22;13927;51.534;11.866;2023-02-08T18:18:42;-0.70;99.90
26182;DHT22;13927;51.534;11.866;2023-02-08T18:21:13;-0.70;99.90
26182;DHT22;13927;51.534;11.866;2023-02-08T18:23:40;-0.70;99.90
26182;DHT22;13927;51.534;11.866;2023-02-08T18:26:09;-0.70;99.90
26182;DHT22;13927;51.534;11.866;2023-02-08T18:28:37;-0.80;99.90
26182;DHT22;13927;51.534;11.866;2023-02-08T18:31:07;-0.80;99.90
26182;DHT22;13927;51.534;11.866;2023-02-08T18:33:36;-0.80;99.90
26182;DHT22;13927;51.534;11.866;2023-02-08T18:36:02;-0.80;99.90